Time;durP1;ratioP1;P1;durP2;ratioP2;P2;SDS_P1;SDS_P2;PMS_P1;PMS_P2;Temp;Humidity;BMP_temperature;BMP_pressure;BME280_temperature;BME280_humidity;BME280_pressure;Samples;Min_cycle;Max_cycle;Signal;HPM_P1;HPM_P2
2022/07/04 00:00:09;;;;;;;10.50;5.53;;;;;;;13.20;85.49;102016.28;4989965;28;20037;-82
2022/07/04 00:02:37;;;;;;;11.63;5.10;;;;;;;13.16;85.63;102017.22;4987892;28;20129;-82
2022/07/04 00:05:02;;;;;;;10.82;5.05;;;;;;;13.08;85.43;102019.91;4991678;28;20030;-83
2022/07/04 00:07:27;;;;;;;9.02;5.45;;;;;;;13.06;85.90;102019.06;4979794;28;20035;-82
2022/07/04 00:09:53;;;;;;;10.30;5.68;;;;;;;13.02;86.41;102014.81;4989159;28;20125;-82
2022/07/04 00:12:18;;;;;;;10.10;5.18;;;;;;;12.99;86.74;102013.09;4974242;28;20049;-83
2022/07/04 00:14:44;;;;;;;9.35;5.18;;;;;;;12.95;86.54;102014.03;4992753;28;20630;-82
2022/07/04 00:17:09;;;;;;;8.68;5.25;;;;;;;12.94;86.87;102014.06;4990363;28;20362;-82
2022/07/04 00:19:35;;;;;;;9.00;5.38;;;;;;;12.92;86.96;102015.81;4971313;28;20058;-83
2022/07/04 00:22:01;;;;;;;8.85;5.38;;;;;;;12.87;87.12;102020.22;4991581;28;20034;-82
2022/07/04 00:24:26;;;;;;;10.38;5.05;;;;;;;12.84;87.36;102010.72;4989577;28;20040;-83
2022/07/04 00:26:51;;;;;;;9.20;5.13;;;;;;;12.80;87.45;102005.59;4989008;28;20456;-82
2022/07/04 00:29:17;;;;;;;8.40;5.30;;;;;;;12.77;87.51;102005.63;4990393;28;20283;-82
2022/07/04 00:31:42;;;;;;;8.05;5.10;;;;;;;12.71;87.36;102005.69;4989968;28;20034;-83
2022/07/04 00:34:08;;;;;;;7.85;5.15;;;;;;;12.69;87.67;102010.09;4988521;28;20076;-82
2022/07/04 00:36:34;;;;;;;11.35;5.32;;;;;;;12.68;87.26;102006.63;4990991;28;20027;-82
2022/07/04 00:38:59;;;;;;;7.75;4.97;;;;;;;12.67;88.09;102004.91;4990178;28;20038;-83
2022/07/04 00:41:24;;;;;;;8.15;5.18;;;;;;;12.66;88.11;102006.63;4990229;28;20190;-82
2022/07/04 00:44:03;;;;;;;9.80;5.50;;;;;;;12.63;87.77;102006.66;4990104;28;20034;-82
2022/07/04 00:46:28;;;;;;;10.60;5.68;;;;;;;12.62;88.03;102009.31;4995690;28;20307;-83
2022/07/04 00:48:54;;;;;;;8.32;5.65;;;;;;;12.58;87.86;102005.88;4990350;28;20026;-82
2022/07/04 00:51:20;;;;;;;9.80;5.85;;;;;;;12.55;88.32;102005.94;4990369;28;20030;-83
2022/07/04 00:53:45;;;;;;;10.20;5.75;;;;;;;12.52;88.03;102008.56;4971765;28;20061;-83
2022/07/04 00:56:10;;;;;;;10.65;5.68;;;;;;;12.48;88.22;102004.28;4989555;28;20057;-82
2022/07/04 00:58:37;;;;;;;11.02;5.90;;;;;;;12.44;88.37;101996.53;4989447;28;20487;-82
2022/07/04 01:01:02;;;;;;;12.38;6.05;;;;;;;12.42;88.63;102001.75;4984898;28;20392;-82
2022/07/04 01:03:28;;;;;;;11.80;6.40;;;;;;;12.36;89.06;101986.22;4990429;28;20032;-82
2022/07/04 01:05:54;;;;;;;8.85;5.70;;;;;;;12.40;89.18;102003.53;4972584;28;20026;-82
2022/07/04 01:08:19;;;;;;;11.63;6.32;;;;;;;12.41;89.03;102004.38;4989455;28;20034;-82
2022/07/04 01:10:44;;;;;;;9.77;6.05;;;;;;;12.36;88.55;102001.81;4989914;28;20050;-82
2022/07/04 01:13:22;;;;;;;10.15;5.93;;;;;;;12.32;89.11;101987.16;4985959;28;20068;-82
2022/07/04 01:15:48;;;;;;;9.55;6.43;;;;;;;12.27;89.59;101995.03;4986413;28;20026;-82
2022/07/04 01:18:14;;;;;;;9.25;6.03;;;;;;;12.24;89.54;101991.56;4989329;28;20023;-82
2022/07/04 01:20:39;;;;;;;11.23;6.40;;;;;;;12.19;89.24;101990.78;4990344;28;20462;-82
2022/07/04 01:23:05;;;;;;;10.30;6.47;;;;;;;12.15;89.69;101984.75;4990177;28;20414;-82
2022/07/04 01:25:32;;;;;;;10.93;6.45;;;;;;;12.10;89.64;101981.34;4983326;28;20335;-83
2022/07/04 01:27:59;;;;;;;11.93;6.40;;;;;;;12.04;89.33;101978.81;4968029;28;20018;-82
2022/07/04 01:30:24;;;;;;;15.13;6.40;;;;;;;12.05;89.64;101975.34;4969043;28;20034;-82
2022/07/04 01:32:50;;;;;;;12.27;6.78;;;;;;;12.03;89.97;101974.50;4968985;28;20026;-82
2022/07/04 01:35:15;;;;;;;10.13;6.25;;;;;;;12.06;90.02;101979.69;4970731;28;20058;-82
2022/07/04 01:37:41;;;;;;;13.20;6.43;;;;;;;12.02;89.78;101974.50;4972807;28;20037;-82
2022/07/04 01:40:06;;;;;;;12.48;6.68;;;;;;;11.97;89.74;101974.56;4972275;28;20113;-82
2022/07/04 01:42:32;;;;;;;11.43;6.85;;;;;;;11.88;89.93;101965.13;4967735;28;20030;-82
2022/07/04 01:44:57;;;;;;;10.93;6.60;;;;;;;11.87;89.99;101981.59;4967285;28;20026;-82
2022/07/04 01:47:22;;;;;;;9.20;6.38;;;;;;;11.87;90.54;101979.00;4969950;28;20027;-82
2022/07/04 01:49:48;;;;;;;12.82;6.32;;;;;;;11.85;90.01;101977.31;4964931;28;20030;-82
2022/07/04 01:52:15;;;;;;;13.48;6.65;;;;;;;11.79;90.00;101978.25;4968356;28;20113;-82
2022/07/04 01:54:41;;;;;;;13.52;7.00;;;;;;;11.80;90.67;101974.75;4965986;28;20027;-82
2022/07/04 01:57:06;;;;;;;11.02;6.50;;;;;;;11.76;91.03;101967.88;4966651;28;20045;-83
2022/07/04 02:02:15;;;;;;;12.37;6.60;;;;;;;11.72;90.23;101970.50;4969032;28;20077;-82
2022/07/04 02:04:41;;;;;;;10.88;6.88;;;;;;;11.66;90.81;101963.63;4973826;28;20058;-82
2022/07/04 02:07:06;;;;;;;10.77;6.80;;;;;;;11.65;90.49;101963.63;4969524;28;20059;-82
2022/07/04 02:09:32;;;;;;;12.80;6.80;;;;;;;11.64;90.94;101961.91;4968943;28;20018;-82
2022/07/04 02:14:43;;;;;;;11.55;6.15;;;;;;;11.60;90.71;101963.66;4969110;28;20466;-82
2022/07/04 02:17:09;;;;;;;12.32;7.05;;;;;;;11.56;91.27;101959.38;4989372;28;20046;-82
2022/07/04 02:19:34;;;;;;;12.48;6.88;;;;;;;11.56;91.56;101967.19;4985308;28;20058;-82
2022/07/04 02:21:59;;;;;;;13.13;6.78;;;;;;;11.57;91.78;101962.84;4968927;28;20034;-82
2022/07/04 02:24:25;;;;;;;12.48;7.03;;;;;;;11.54;91.38;101961.13;4969019;28;20054;-82
2022/07/04 02:26:50;;;;;;;11.05;6.75;;;;;;;11.56;91.85;101964.59;4969348;28;20060;-82
2022/07/04 02:29:16;;;;;;;10.50;6.60;;;;;;;11.54;91.59;101958.53;4967378;28;20054;-82
2022/07/04 02:31:41;;;;;;;12.00;6.70;;;;;;;11.54;91.46;101961.13;4968880;28;20294;-81
2022/07/04 02:34:07;;;;;;;10.50;6.55;;;;;;;11.53;91.46;101949.06;4968404;28;20034;-82
2022/07/04 02:36:32;;;;;;;12.02;6.93;;;;;;;11.52;91.34;101967.25;4968448;28;20109;-81
2022/07/04 02:38:57;;;;;;;12.93;7.07;;;;;;;11.47;90.91;101965.53;4972174;28;20081;-81
2022/07/04 02:41:23;;;;;;;12.60;6.95;;;;;;;11.45;91.32;101964.69;4975961;28;20072;-81
2022/07/04 02:43:48;;;;;;;9.85;6.40;;;;;;;11.42;90.41;101962.13;4972910;28;20561;-81
2022/07/04 02:46:13;;;;;;;12.18;7.07;;;;;;;11.43;90.74;101961.25;4972507;28;20485;-82
2022/07/04 02:48:39;;;;;;;11.13;6.82;;;;;;;11.43;91.24;101974.22;4966592;28;20121;-82
2022/07/04 02:51:04;;;;;;;11.05;6.75;;;;;;;11.43;91.56;101971.63;4970397;28;20042;-81
2022/07/04 02:53:29;;;;;;;11.45;7.07;;;;;;;11.38;91.45;101965.63;4973326;28;20118;-82
2022/07/04 02:55:55;;;;;;;10.90;6.77;;;;;;;11.41;91.54;101969.91;4975282;28;20026;-82
2022/07/04 02:58:20;;;;;;;12.17;7.17;;;;;;;11.40;92.00;101968.19;4973285;28;20769;-82
2022/07/04 03:00:45;;;;;;;12.27;6.77;;;;;;;11.38;91.38;101965.63;4971749;28;20286;-82
2022/07/04 03:03:10;;;;;;;12.10;6.77;;;;;;;11.34;91.88;101969.09;4977083;28;20467;-82
2022/07/04 03:05:36;;;;;;;13.02;7.53;;;;;;;11.37;92.22;101976.03;4969702;28;20326;-81
2022/07/04 03:08:01;;;;;;;14.38;7.70;;;;;;;11.35;91.98;101978.63;4973226;28;20042;-81
2022/07/04 03:10:26;;;;;;;11.60;7.22;;;;;;;11.33;91.75;101980.34;4972579;28;20067;-81
2022/07/04 03:12:52;;;;;;;15.25;7.30;;;;;;;11.31;91.74;101989.06;4971785;28;20027;-81
2022/07/04 03:15:18;;;;;;;9.85;6.65;;;;;;;11.31;91.64;101983.88;4947539;28;20298;-81
2022/07/04 03:17:43;;;;;;;13.13;7.18;;;;;;;11.30;92.04;101982.13;4971640;28;20058;-82
2022/07/04 03:20:09;;;;;;;15.02;7.03;;;;;;;11.26;91.91;101983.06;4984052;28;20042;-81
2022/07/04 03:22:34;;;;;;;14.95;7.32;;;;;;;11.29;92.41;101990.78;4991822;28;20058;-81
2022/07/04 03:25:00;;;;;;;13.27;7.43;;;;;;;11.28;92.39;101995.13;4997698;28;20068;-81
2022/07/04 03:27:25;;;;;;;15.25;7.63;;;;;;;11.25;91.96;101994.31;5000407;28;20255;-81
2022/07/04 03:29:51;;;;;;;11.57;7.13;;;;;;;11.19;92.18;101990.00;4991021;28;20539;-81
2022/07/04 03:32:16;;;;;;;11.75;7.25;;;;;;;11.23;92.12;101990.84;4972496;28;20026;-81
2022/07/04 03:34:41;;;;;;;11.18;6.93;;;;;;;11.23;92.03;101996.91;4995515;28;20040;-82
2022/07/04 03:37:06;;;;;;;13.23;7.40;;;;;;;11.27;93.04;101997.72;5008154;28;20033;-81
2022/07/04 03:39:32;;;;;;;12.23;7.30;;;;;;;11.26;92.68;102001.22;4992781;28;20030;-81
2022/07/04 03:41:57;;;;;;;12.45;7.25;;;;;;;11.27;92.47;102000.31;4991864;28;20374;-81
2022/07/04 03:44:22;;;;;;;14.55;7.38;;;;;;;11.26;92.85;101998.63;4990580;28;20025;-81
2022/07/04 03:46:48;;;;;;;14.98;7.35;;;;;;;11.25;92.50;102010.75;4992332;28;20025;-81
2022/07/04 03:49:13;;;;;;;14.00;7.07;;;;;;;11.23;92.43;102003.81;4987961;28;20049;-82
2022/07/04 03:51:38;;;;;;;12.87;7.20;;;;;;;11.23;92.79;102012.47;4989996;28;20568;-81
2022/07/04 03:54:04;;;;;;;11.95;7.60;;;;;;;11.26;93.01;102021.97;4989263;28;20289;-82
2022/07/04 03:56:30;;;;;;;11.70;7.55;;;;;;;11.28;93.43;102023.66;4991705;28;20305;-81
2022/07/04 03:58:55;;;;;;;12.65;7.68;;;;;;;11.26;93.24;102025.41;4974383;28;20022;-82
2022/07/04 04:01:21;;;;;;;11.32;7.07;;;;;;;11.29;93.33;102030.59;4991770;28;20045;-81
2022/07/04 04:06:30;;;;;;;13.27;7.00;;;;;;;11.35;93.57;102034.88;4989043;28;20400;-82
2022/07/04 04:08:56;;;;;;;13.82;7.50;;;;;;;11.36;93.43;102028.81;4988801;28;20481;-82
2022/07/04 04:11:22;;;;;;;11.02;7.03;;;;;;;11.40;93.69;102031.34;4988103;28;20117;-82
2022/07/04 04:13:48;;;;;;;12.93;7.18;;;;;;;11.42;94.17;102036.53;4993985;28;20061;-82
2022/07/04 04:16:13;;;;;;;14.52;7.70;;;;;;;11.45;94.33;102033.94;4991531;28;20031;-81
2022/07/04 04:18:39;;;;;;;12.80;7.72;;;;;;;11.51;93.92;102033.03;4989953;28;20041;-82
2022/07/04 04:21:05;;;;;;;14.85;7.75;;;;;;;11.54;93.98;102027.78;4990698;28;20462;-81
2022/07/04 04:23:30;;;;;;;14.60;7.60;;;;;;;11.58;94.31;102032.09;4970255;28;20062;-81
2022/07/04 04:25:56;;;;;;;13.38;7.63;;;;;;;11.61;94.23;102030.31;4971997;28;20481;-81
2022/07/04 04:28:22;;;;;;;12.32;7.85;;;;;;;11.67;94.69;102045.00;4954372;28;20027;-76
2022/07/04 04:30:47;;;;;;;14.43;7.57;;;;;;;11.71;94.43;102046.69;4972610;28;20110;-76
2022/07/04 04:33:13;;;;;;;13.13;7.88;;;;;;;11.71;93.54;102042.34;4968887;28;20526;-75
2022/07/04 04:35:38;;;;;;;14.18;8.38;;;;;;;11.76;94.17;102047.53;4964212;28;20508;-76
2022/07/04 04:38:03;;;;;;;12.73;7.93;;;;;;;11.82;94.41;102047.47;4973505;28;20047;-76
2022/07/04 04:40:29;;;;;;;14.50;7.97;;;;;;;11.86;93.82;102054.38;4969639;28;20026;-76
2022/07/04 04:42:55;;;;;;;16.17;8.65;;;;;;;11.87;93.30;102043.94;4969448;28;20085;-76
2022/07/04 04:45:21;;;;;;;16.60;9.43;;;;;;;11.95;94.51;102050.81;4988170;28;20429;-76
2022/07/04 04:47:46;;;;;;;16.50;9.27;;;;;;;11.98;93.91;102048.19;4964973;28;20030;-76
2022/07/04 04:50:12;;;;;;;15.95;9.07;;;;;;;12.02;93.49;102049.88;4967686;28;20496;-76
2022/07/04 04:52:38;;;;;;;17.55;9.43;;;;;;;12.05;92.65;102044.66;4969229;28;20240;-76
2022/07/04 04:55:04;;;;;;;16.55;8.25;;;;;;;12.09;92.29;102054.13;4954203;28;20042;-76
2022/07/04 04:57:29;;;;;;;13.85;8.07;;;;;;;12.15;94.26;102044.53;4968531;28;20084;-76
2022/07/04 04:59:55;;;;;;;14.20;8.40;;;;;;;12.18;93.07;102046.25;4983172;28;20532;-76
2022/07/04 05:02:20;;;;;;;12.93;8.38;;;;;;;12.22;94.21;102040.97;4953581;28;20034;-76
2022/07/04 05:04:45;;;;;;;17.40;8.00;;;;;;;12.27;94.22;102035.75;4977140;28;20584;-76
2022/07/04 05:07:11;;;;;;;13.23;7.55;;;;;;;12.28;92.09;102029.69;4969542;28;20108;-76
2022/07/04 05:09:36;;;;;;;12.95;7.75;;;;;;;12.35;94.04;102030.47;4975287;28;20338;-76
2022/07/04 05:12:01;;;;;;;13.13;7.20;;;;;;;12.34;92.15;102021.81;4988996;28;20034;-76
2022/07/04 05:14:28;;;;;;;13.40;7.60;;;;;;;12.40;92.92;102031.25;4967377;28;20119;-76
2022/07/04 05:16:53;;;;;;;15.57;7.88;;;;;;;12.44;94.36;102033.78;4972772;28;20401;-76
2022/07/04 05:19:19;;;;;;;13.57;8.23;;;;;;;12.49;92.75;102034.59;4990210;28;20527;-76
2022/07/04 05:21:44;;;;;;;13.05;7.78;;;;;;;12.56;93.88;102043.19;4972230;28;20034;-78
2022/07/04 05:24:11;;;;;;;15.38;8.20;;;;;;;12.56;93.20;102036.25;4971329;28;20508;-76
2022/07/04 05:26:36;;;;;;;16.92;8.43;;;;;;;12.64;93.72;102031.81;4981567;28;20456;-76
2022/07/04 05:29:02;;;;;;;14.80;8.45;;;;;;;12.67;92.29;102033.50;4977372;28;20022;-83
2022/07/04 05:31:27;;;;;;;17.85;8.52;;;;;;;12.72;92.80;102025.63;4956649;28;20551;-83
2022/07/04 05:33:54;;;;;;;16.15;8.27;;;;;;;12.78;92.41;102033.34;4962767;28;20026;-82
2022/07/04 05:36:19;;;;;;;12.27;7.90;;;;;;;12.87;93.66;102043.66;4989743;28;20361;-82
2022/07/04 05:38:45;;;;;;;16.30;8.35;;;;;;;12.90;92.32;102044.44;4981954;28;20458;-83
2022/07/04 05:41:10;;;;;;;13.68;8.52;;;;;;;12.97;92.33;102050.44;4986797;28;20026;-83
2022/07/04 05:43:35;;;;;;;14.63;8.25;;;;;;;13.02;91.70;102053.84;4970025;28;20057;-82
2022/07/04 05:46:00;;;;;;;16.98;8.45;;;;;;;13.08;91.58;102056.34;4971891;28;20398;-83
2022/07/04 05:48:26;;;;;;;14.10;8.20;;;;;;;13.17;93.72;102053.63;4963926;28;20344;-83
2022/07/04 05:50:51;;;;;;;13.73;7.97;;;;;;;13.21;92.27;102055.31;4973411;28;20129;-83
2022/07/04 05:53:17;;;;;;;15.63;8.80;;;;;;;13.27;92.94;102047.41;4966322;28;20178;-82
2022/07/04 05:55:42;;;;;;;16.20;8.70;;;;;;;13.34;93.82;102051.66;4983091;28;20057;-83
2022/07/04 05:58:07;;;;;;;18.38;8.90;;;;;;;13.38;92.41;102047.22;4959786;28;20114;-83
2022/07/04 06:00:33;;;;;;;15.02;8.50;;;;;;;13.48;92.22;102051.44;4968809;28;20027;-77
2022/07/04 06:02:58;;;;;;;15.40;8.85;;;;;;;13.58;93.11;102046.94;4956036;28;20034;-77
2022/07/04 06:05:23;;;;;;;15.20;8.50;;;;;;;13.69;93.36;102060.63;4989825;28;20097;-77
2022/07/04 06:07:49;;;;;;;15.90;8.25;;;;;;;13.71;91.99;102054.53;4980856;28;20674;-77
2022/07/04 06:10:14;;;;;;;15.75;8.60;;;;;;;13.78;91.75;102060.47;4976985;28;20034;-77
2022/07/04 06:12:40;;;;;;;12.82;7.97;;;;;;;13.84;91.61;102060.38;4968706;28;20058;-77
2022/07/04 06:15:06;;;;;;;13.57;7.93;;;;;;;13.92;91.44;102063.69;4973401;28;20029;-77
2022/07/04 06:17:32;;;;;;;14.50;8.40;;;;;;;14.01;91.35;102066.13;4956280;28;20126;-77
2022/07/04 06:19:57;;;;;;;18.30;8.38;;;;;;;14.11;90.77;102065.09;4970100;28;20169;-77
2022/07/04 06:22:22;;;;;;;16.40;7.90;;;;;;;14.22;91.27;102059.66;4987925;28;20043;-77
2022/07/04 06:24:48;;;;;;;18.10;8.55;;;;;;;14.35;92.78;102070.69;4959742;28;20377;-77
2022/07/04 06:27:13;;;;;;;16.23;8.45;;;;;;;14.47;91.84;102063.53;4969972;28;20023;-77
2022/07/04 06:29:40;;;;;;;14.38;8.02;;;;;;;14.62;90.47;102055.38;4973692;28;20117;-84
2022/07/04 06:32:06;;;;;;;14.10;7.15;;;;;;;14.79;88.19;102052.44;4970705;28;20426;-83
2022/07/04 06:37:15;;;;;;;11.18;6.25;;;;;;;15.05;87.36;102038.78;4965786;28;20046;-84
2022/07/04 06:39:40;;;;;;;11.90;6.05;;;;;;;15.19;86.36;102047.16;4956501;28;20062;-84
2022/07/04 06:42:05;;;;;;;11.25;6.30;;;;;;;15.33;85.35;102046.84;4974196;28;20050;-83
2022/07/04 06:44:31;;;;;;;12.60;5.97;;;;;;;15.48;83.93;102054.31;4973765;28;20031;-84
2022/07/04 06:46:56;;;;;;;12.73;5.60;;;;;;;15.60;82.99;102037.47;4973810;28;20094;-84
2022/07/04 06:49:21;;;;;;;11.53;5.17;;;;;;;15.83;83.32;102056.03;4966920;28;20466;-84
2022/07/04 06:51:47;;;;;;;9.65;5.57;;;;;;;16.05;82.37;102058.94;4974179;28;20266;-84
2022/07/04 06:54:12;;;;;;;9.25;5.40;;;;;;;16.31;80.33;102055.63;4973941;28;20019;-84
2022/07/04 06:56:37;;;;;;;10.13;4.68;;;;;;;16.54;81.31;102058.44;4974042;28;20019;-84
2022/07/04 06:59:04;;;;;;;12.95;5.63;;;;;;;16.72;78.23;102057.91;4974073;28;20031;-83
2022/07/04 07:01:30;;;;;;;10.73;5.10;;;;;;;16.89;79.49;102055.66;4973996;28;20031;-84
2022/07/04 07:03:55;;;;;;;10.98;5.45;;;;;;;17.11;78.89;102052.38;4974063;28;20046;-84
2022/07/04 07:06:23;;;;;;;8.60;5.20;;;;;;;17.17;76.22;102050.44;4978667;28;20023;-84
2022/07/04 07:08:48;;;;;;;10.25;5.43;;;;;;;17.27;76.23;102050.97;4968897;28;20341;-83
2022/07/04 07:11:13;;;;;;;10.70;5.43;;;;;;;17.47;76.81;102047.72;4961731;28;20027;-84
2022/07/04 07:13:44;;;;;;;10.02;5.07;;;;;;;17.70;76.33;102050.44;4973909;28;20042;-84
2022/07/04 07:16:10;;;;;;;9.52;5.60;;;;;;;17.99;74.71;102047.69;4974211;28;20034;-84
2022/07/04 07:18:36;;;;;;;10.57;5.22;;;;;;;18.17;72.31;102044.41;4973872;28;20027;-85
2022/07/04 07:21:01;;;;;;;9.15;5.13;;;;;;;18.23;74.61;102045.94;4985030;28;20051;-84
2022/07/04 07:23:27;;;;;;;10.48;6.18;;;;;;;18.26;72.75;102050.25;4973885;28;20031;-85
2022/07/04 07:25:52;;;;;;;10.27;5.32;;;;;;;18.31;72.45;102054.41;4956415;28;20034;-84
2022/07/04 07:28:18;;;;;;;10.98;5.95;;;;;;;18.34;72.06;102051.69;4985964;28;20038;-85
2022/07/04 07:30:43;;;;;;;9.70;5.63;;;;;;;18.37;71.41;102053.31;4992991;28;20113;-84
2022/07/04 07:33:09;;;;;;;13.48;5.68;;;;;;;18.35;70.82;102049.91;4992972;28;20546;-84
2022/07/04 07:35:34;;;;;;;10.02;5.30;;;;;;;18.36;69.89;102052.44;4992794;28;20027;-85
2022/07/04 07:38:00;;;;;;;9.70;5.30;;;;;;;18.41;72.18;102061.03;4984504;28;20630;-84
2022/07/04 07:40:25;;;;;;;11.98;5.03;;;;;;;18.57;71.88;102053.47;4990813;28;20022;-84
2022/07/04 07:42:50;;;;;;;10.52;5.30;;;;;;;18.82;71.15;102056.91;4992710;28;20080;-84
2022/07/04 07:45:16;;;;;;;11.48;5.25;;;;;;;19.10;69.63;102061.06;4992446;28;20118;-84
2022/07/04 07:47:41;;;;;;;9.90;5.40;;;;;;;19.12;67.64;102046.94;4992853;28;20030;-85
2022/07/04 07:50:07;;;;;;;9.38;4.80;;;;;;;19.53;68.48;102047.03;4974804;28;20346;-85
2022/07/04 07:52:32;;;;;;;7.68;4.72;;;;;;;20.50;65.80;102034.88;4992477;28;20481;-85
2022/07/04 07:54:57;;;;;;;10.40;4.93;;;;;;;21.55;61.59;102037.72;4992340;28;20028;-85
2022/07/04 07:57:23;;;;;;;10.65;4.68;;;;;;;22.53;60.00;102031.66;4992383;28;20027;-85
2022/07/04 07:59:48;;;;;;;8.40;4.60;;;;;;;23.38;58.01;102028.66;4992452;28;20050;-85
2022/07/04 08:02:13;;;;;;;7.37;4.47;;;;;;;24.16;55.08;102027.47;4992628;28;20064;-86
2022/07/04 08:04:40;;;;;;;8.15;4.43;;;;;;;24.71;51.62;102016.91;4992613;28;20357;-86
2022/07/04 08:07:08;;;;;;;6.35;4.20;;;;;;;25.36;51.96;102023.25;4992355;28;20022;-86
2022/07/04 08:09:34;;;;;;;9.65;4.13;;;;;;;25.72;48.82;102019.97;4992069;28;20027;-85
2022/07/04 08:12:00;;;;;;;6.45;3.90;;;;;;;26.20;50.23;102014.84;4992591;28;20036;-84
2022/07/04 08:14:25;;;;;;;6.90;3.83;;;;;;;26.41;47.60;102010.66;4960538;28;20024;-86
2022/07/04 08:16:51;;;;;;;8.38;3.80;;;;;;;26.26;47.54;102022.41;4988479;28;20011;-84
2022/07/04 08:19:16;;;;;;;6.13;2.83;;;;;;;25.99;45.90;102027.81;4991406;28;20049;-84
2022/07/04 08:21:42;;;;;;;8.30;2.83;;;;;;;25.56;47.83;102038.69;4974983;28;20065;-84
2022/07/04 08:24:07;;;;;;;7.45;2.53;;;;;;;25.44;48.98;102026.25;4981870;28;20277;-84
2022/07/04 08:26:32;;;;;;;5.22;2.55;;;;;;;25.25;49.15;102031.06;4991785;28;20022;-84
2022/07/04 08:28:59;;;;;;;5.55;2.10;;;;;;;25.08;47.21;102034.84;4991900;28;20080;-85
2022/07/04 08:31:25;;;;;;;5.47;2.00;;;;;;;25.03;46.30;102038.75;4981475;28;20023;-84
2022/07/04 08:33:51;;;;;;;7.80;2.15;;;;;;;24.87;46.56;102043.31;4974048;28;20065;-83
2022/07/04 08:36:16;;;;;;;5.13;2.00;;;;;;;24.82;45.93;102043.63;4990988;28;20022;-83
2022/07/04 08:38:42;;;;;;;3.35;1.90;;;;;;;24.85;48.86;102042.56;4973718;28;20085;-84
2022/07/04 08:41:08;;;;;;;5.38;2.10;;;;;;;24.73;46.33;102042.41;4991200;28;20027;-84
2022/07/04 08:43:35;;;;;;;4.20;1.90;;;;;;;24.79;47.17;102044.66;4991387;28;20065;-84
2022/07/04 08:46:03;;;;;;;4.70;1.85;;;;;;;24.93;47.55;102048.25;4991481;28;20095;-84
2022/07/04 08:48:30;;;;;;;5.25;2.08;;;;;;;24.97;47.45;102047.97;4979863;28;20034;-83
2022/07/04 08:50:59;;;;;;;4.93;2.08;;;;;;;25.03;46.98;102052.03;4979229;28;20109;-84
2022/07/04 08:53:29;;;;;;;5.82;2.40;;;;;;;24.95;46.47;102038.41;4984720;28;20423;-84
2022/07/04 08:58:42;;;;;;;7.55;2.60;;;;;;;24.95;44.33;102055.19;4991215;28;20050;-83
2022/07/04 09:01:14;;;;;;;7.13;2.30;;;;;;;24.92;45.14;102052.72;4991168;28;20033;-83
2022/07/04 09:03:41;;;;;;;7.40;2.85;;;;;;;24.94;48.44;102048.16;4981262;28;20033;-84
2022/07/04 09:06:06;;;;;;;5.22;2.50;;;;;;;25.02;46.74;102050.31;4954122;28;20029;-84
2022/07/04 09:08:32;;;;;;;6.13;2.90;;;;;;;25.13;47.17;102045.16;4971669;28;20023;-85
2022/07/04 09:10:57;;;;;;;5.70;2.40;;;;;;;25.25;47.70;102056.78;4971679;28;20102;-84
2022/07/04 09:13:22;;;;;;;5.80;2.33;;;;;;;25.23;48.45;102048.91;4972161;28;20282;-84
2022/07/04 09:15:50;;;;;;;3.88;2.17;;;;;;;25.23;49.98;102043.63;4970346;28;20278;-85
2022/07/04 09:18:27;;;;;;;6.47;2.65;;;;;;;25.33;45.29;102050.00;4971665;28;20100;-83
2022/07/04 09:20:54;;;;;;;5.68;2.60;;;;;;;25.43;45.16;102056.41;4988524;28;20118;-86
2022/07/04 09:23:25;;;;;;;4.75;2.90;;;;;;;25.45;44.00;102054.47;4990714;28;20041;-84
2022/07/04 09:26:13;;;;;;;6.13;2.60;;;;;;;25.54;48.54;102053.03;4991279;28;20042;-84
2022/07/04 09:28:40;;;;;;;5.72;2.40;;;;;;;25.71;46.90;102054.59;4991429;28;20022;-79
2022/07/04 09:31:26;;;;;;;4.85;2.30;;;;;;;25.94;48.16;102051.19;4990708;28;20023;-78
2022/07/04 09:33:56;;;;;;;4.82;2.50;;;;;;;25.86;42.65;102057.03;4990582;28;20074;-78
2022/07/04 09:36:29;;;;;;;4.85;2.40;;;;;;;25.80;45.68;102046.81;4983762;28;20023;-79
2022/07/04 09:39:14;;;;;;;6.72;2.30;;;;;;;25.78;43.20;102048.75;4973268;28;20050;-78
2022/07/04 09:42:03;;;;;;;6.93;2.55;;;;;;;25.26;44.57;102038.09;4972841;28;20465;-79
2022/07/04 09:44:34;;;;;;;6.10;2.67;;;;;;;24.98;46.97;102048.81;4990478;28;20026;-78
2022/07/04 09:47:27;;;;;;;5.80;2.42;;;;;;;25.23;48.89;102045.41;4990731;28;20034;-78
2022/07/04 09:50:04;;;;;;;5.22;2.35;;;;;;;25.47;46.54;102041.97;4990402;28;20103;-79
2022/07/04 09:52:31;;;;;;;5.05;2.38;;;;;;;25.60;46.02;102035.84;4990431;28;20104;-79
2022/07/04 09:54:58;;;;;;;6.85;2.40;;;;;;;25.74;45.35;102036.63;4981790;28;20074;-78
2022/07/04 09:57:24;;;;;;;6.28;2.30;;;;;;;25.84;42.42;102042.16;4977148;28;20033;-79
2022/07/04 09:59:49;;;;;;;4.13;2.50;;;;;;;25.87;42.58;102037.47;4980572;28;20023;-78
2022/07/04 10:02:15;;;;;;;6.97;2.40;;;;;;;25.87;44.19;102037.47;4986847;28;20252;-79
2022/07/04 10:04:45;;;;;;;5.60;2.75;;;;;;;25.96;43.18;102036.84;4990371;28;20034;-78
2022/07/04 10:07:10;;;;;;;11.02;2.92;;;;;;;26.06;42.35;102042.38;4990207;28;20585;-79
2022/07/04 10:09:36;;;;;;;8.20;3.25;;;;;;;26.10;44.10;102030.56;4990425;28;20030;-79
2022/07/04 10:12:01;;;;;;;6.30;2.57;;;;;;;26.25;42.65;102026.03;4988974;28;20019;-79
2022/07/04 10:14:27;;;;;;;6.40;2.50;;;;;;;26.49;41.51;102023.41;4979062;28;20281;-79
2022/07/04 10:16:52;;;;;;;7.70;2.80;;;;;;;26.23;40.81;102030.56;4984579;28;20030;-79
2022/07/04 10:19:19;;;;;;;8.85;2.75;;;;;;;25.67;42.01;102032.69;4989769;28;20061;-78
2022/07/04 10:21:46;;;;;;;5.35;2.45;;;;;;;25.14;41.93;102030.94;4989929;28;20034;-78
2022/07/04 10:24:11;;;;;;;5.18;2.53;;;;;;;24.71;44.31;102028.38;4972556;28;20413;-78
2022/07/04 10:26:36;;;;;;;9.77;3.05;;;;;;;24.39;44.42;102019.84;4989814;28;20870;-78
2022/07/04 10:29:02;;;;;;;7.45;2.90;;;;;;;24.15;46.73;102016.03;4954006;28;20038;-85
2022/07/04 10:31:29;;;;;;;5.03;2.63;;;;;;;24.03;46.24;102017.63;4982022;28;20370;-85
2022/07/04 10:33:57;;;;;;;8.68;3.25;;;;;;;24.12;46.25;102018.00;4989827;28;20022;-84
2022/07/04 10:36:27;;;;;;;9.40;3.95;;;;;;;24.36;46.28;102009.41;4989888;28;20054;-84
2022/07/04 10:39:01;;;;;;;8.73;2.80;;;;;;;24.70;47.29;102016.06;4989898;28;20018;-84
2022/07/04 10:41:28;;;;;;;7.13;3.08;;;;;;;24.93;45.95;102005.81;4989725;28;20254;-85
2022/07/04 10:44:00;;;;;;;7.15;3.05;;;;;;;25.14;43.84;102010.56;4989604;28;20041;-84
2022/07/04 10:46:27;;;;;;;5.78;2.97;;;;;;;25.25;44.14;102009.00;4972149;28;20030;-85
2022/07/04 10:48:54;;;;;;;4.63;2.90;;;;;;;25.18;42.82;102004.09;4989707;28;20068;-85
2022/07/04 10:52:00;;;;;;;6.55;2.78;;;;;;;25.17;43.30;102006.88;4989659;28;20062;-85
2022/07/04 10:54:31;;;;;;;7.88;3.00;;;;;;;24.83;44.35;102000.25;4891543;29;20028;-84
2022/07/04 10:57:08;;;;;;;7.35;3.13;;;;;;;24.60;44.07;102000.84;4891244;29;20046;-84
2022/07/04 10:59:34;;;;;;;8.23;2.70;;;;;;;24.20;47.32;101995.44;4949547;28;20046;-78
2022/07/04 11:02:11;;;;;;;5.55;3.00;;;;;;;24.10;46.01;102004.00;4989732;28;20096;-78
2022/07/04 11:04:52;;;;;;;9.00;2.90;;;;;;;23.80;47.17;102006.75;4993415;28;20489;-78
2022/07/04 11:07:30;;;;;;;6.75;2.90;;;;;;;23.62;47.37;102003.38;4975410;28;20041;-78
2022/07/04 11:10:10;;;;;;;9.93;3.05;;;;;;;23.38;48.23;102002.19;4993088;28;20022;-78
2022/07/04 11:12:55;;;;;;;5.70;3.35;;;;;;;23.31;49.50;102000.84;4993551;28;20226;-79
2022/07/04 11:15:29;;;;;;;6.53;4.00;;;;;;;23.21;51.67;102005.78;4976007;28;20094;-79
2022/07/04 11:17:55;;;;;;;;;;;;;;;23.31;50.19;102003.47;4993450;28;20173;-78
2022/07/04 11:20:22;;;;;;;8.43;4.80;;;;;;;23.05;53.42;102002.34;4992744;28;20016;-79
2022/07/04 11:22:47;;;;;;;8.95;5.18;;;;;;;22.91;55.43;102002.28;4993229;28;20194;-79
2022/07/04 11:25:13;;;;;;;11.68;5.53;;;;;;;22.67;54.21;102007.97;4979537;28;20027;-78
2022/07/04 11:27:39;;;;;;;7.60;4.85;;;;;;;22.44;54.59;102008.41;4981821;28;20019;-79
2022/07/04 11:30:06;;;;;;;9.13;5.68;;;;;;;22.22;54.72;102010.50;4990839;28;20088;-86
2022/07/04 11:32:33;;;;;;;10.60;6.05;;;;;;;22.06;55.50;102008.66;4992948;28;20027;-86